sensor_id;sensor_type;location;lat;lon;timestamp;temperature;humidity
29031;DHT22;16122;50.236;11.734;2022-09-24T00:01:19;16.70;73.00
29031;DHT22;16122;50.236;11.734;2022-09-24T00:03:54;16.70;73.00
29031;DHT22;16122;50.236;11.734;2022-09-24T00:06:21;16.60;73.40
29031;DHT22;16122;50.236;11.734;2022-09-24T00:08:49;16.60;74.10
29031;DHT22;16122;50.236;11.734;2022-09-24T00:11:16;16.70;75.30
29031;DHT22;16122;50.236;11.734;2022-09-24T00:13:45;16.60;75.00
29031;DHT22;16122;50.236;11.734;2022-09-24T00:16:13;16.90;75.10
29031;DHT22;16122;50.236;11.734;2022-09-24T00:18:40;16.70;74.80
29031;DHT22;16122;50.236;11.734;2022-09-24T00:21:13;16.70;75.10
29031;DHT22;16122;50.236;11.734;2022-09-24T00:23:39;16.60;75.00
29031;DHT22;16122;50.236;11.734;2022-09-24T00:26:05;16.70;75.20
29031;DHT22;16122;50.236;11.734;2022-09-24T00:28:51;16.70;75.70
29031;DHT22;16122;50.236;11.734;2022-09-24T00:31:17;16.70;76.10
29031;DHT22;16122;50.236;11.734;2022-09-24T00:33:43;16.60;75.70
29031;DHT22;16122;50.236;11.734;2022-09-24T00:36:09;16.60;75.70
29031;DHT22;16122;50.236;11.734;2022-09-24T00:38:35;16.60;75.10
29031;DHT22;16122;50.236;11.734;2022-09-24T00:41:01;16.60;75.20
29031;DHT22;16122;50.236;11.734;2022-09-24T00:43:32;16.60;75.10
29031;DHT22;16122;50.236;11.734;2022-09-24T00:48:36;16.70;76.10
29031;DHT22;16122;50.236;11.734;2022-09-24T00:51:04;16.60;76.30
29031;DHT22;16122;50.236;11.734;2022-09-24T00:53:30;16.50;75.80
29031;DHT22;16122;50.236;11.734;2022-09-24T00:56:00;16.60;75.50
29031;DHT22;16122;50.236;11.734;2022-09-24T00:58:28;16.60;75.00
29031;DHT22;16122;50.236;11.734;2022-09-24T01:01:03;16.50;75.00
29031;DHT22;16122;50.236;11.734;2022-09-24T01:03:32;16.60;75.60
29031;DHT22;16122;50.236;11.734;2022-09-24T01:06:00;16.70;75.10
29031;DHT22;16122;50.236;11.734;2022-09-24T01:08:26;16.60;75.40
29031;DHT22;16122;50.236;11.734;2022-09-24T01:22:39;16.50;75.20
29031;DHT22;16122;50.236;11.734;2022-09-24T01:25:22;16.50;75.70
29031;DHT22;16122;50.236;11.734;2022-09-24T01:31:07;16.50;76.20
29031;DHT22;16122;50.236;11.734;2022-09-24T01:33:38;16.50;76.20
29031;DHT22;16122;50.236;11.734;2022-09-24T01:36:05;16.50;75.80
29031;DHT22;16122;50.236;11.734;2022-09-24T01:38:39;16.60;75.90
29031;DHT22;16122;50.236;11.734;2022-09-24T01:41:09;16.50;75.90
29031;DHT22;16122;50.236;11.734;2022-09-24T01:43:35;16.50;76.20
29031;DHT22;16122;50.236;11.734;2022-09-24T01:46:03;16.60;76.40
29031;DHT22;16122;50.236;11.734;2022-09-24T01:48:31;16.50;76.00
29031;DHT22;16122;50.236;11.734;2022-09-24T01:56:45;16.50;75.90
29031;DHT22;16122;50.236;11.734;2022-09-24T02:02:04;16.60;73.90
29031;DHT22;16122;50.236;11.734;2022-09-24T02:04:37;16.50;73.50
29031;DHT22;16122;50.236;11.734;2022-09-24T02:07:13;16.50;69.90
29031;DHT22;16122;50.236;11.734;2022-09-24T02:09:42;16.50;68.20
29031;DHT22;16122;50.236;11.734;2022-09-24T02:12:16;16.20;67.40
29031;DHT22;16122;50.236;11.734;2022-09-24T02:14:49;16.50;66.80
29031;DHT22;16122;50.236;11.734;2022-09-24T02:17:16;16.50;66.50
29031;DHT22;16122;50.236;11.734;2022-09-24T02:19:43;16.50;65.90
29031;DHT22;16122;50.236;11.734;2022-09-24T02:22:11;16.50;65.70
29031;DHT22;16122;50.236;11.734;2022-09-24T02:24:48;16.50;65.50
29031;DHT22;16122;50.236;11.734;2022-09-24T02:27:16;16.50;65.30
29031;DHT22;16122;50.236;11.734;2022-09-24T02:29:42;16.50;65.10
29031;DHT22;16122;50.236;11.734;2022-09-24T02:32:12;16.50;65.00
29031;DHT22;16122;50.236;11.734;2022-09-24T02:34:43;16.40;64.90
29031;DHT22;16122;50.236;11.734;2022-09-24T02:37:13;16.40;65.10
29031;DHT22;16122;50.236;11.734;2022-09-24T02:39:39;16.40;64.40
29031;DHT22;16122;50.236;11.734;2022-09-24T02:42:06;16.90;65.00
29031;DHT22;16122;50.236;11.734;2022-09-24T02:44:34;16.40;64.40
29031;DHT22;16122;50.236;11.734;2022-09-24T02:47:00;16.40;64.30
29031;DHT22;16122;50.236;11.734;2022-09-24T02:49:26;16.40;64.40
29031;DHT22;16122;50.236;11.734;2022-09-24T02:51:52;16.40;64.20
29031;DHT22;16122;50.236;11.734;2022-09-24T02:54:18;16.50;64.40
29031;DHT22;16122;50.236;11.734;2022-09-24T02:56:44;16.40;64.20
29031;DHT22;16122;50.236;11.734;2022-09-24T02:59:10;16.40;64.20
29031;DHT22;16122;50.236;11.734;2022-09-24T03:01:36;16.40;64.20
29031;DHT22;16122;50.236;11.734;2022-09-24T03:04:02;16.40;64.40
29031;DHT22;16122;50.236;11.734;2022-09-24T03:06:29;16.40;64.00
29031;DHT22;16122;50.236;11.734;2022-09-24T03:08:55;16.40;64.00
29031;DHT22;16122;50.236;11.734;2022-09-24T03:11:22;16.40;64.00
29031;DHT22;16122;50.236;11.734;2022-09-24T03:13:48;16.40;63.80
29031;DHT22;16122;50.236;11.734;2022-09-24T03:16:15;16.40;63.50
29031;DHT22;16122;50.236;11.734;2022-09-24T03:18:42;16.40;63.50
29031;DHT22;16122;50.236;11.734;2022-09-24T03:21:11;16.40;63.50
29031;DHT22;16122;50.236;11.734;2022-09-24T03:23:37;16.70;63.60
29031;DHT22;16122;50.236;11.734;2022-09-24T03:26:03;16.40;63.30
29031;DHT22;16122;50.236;11.734;2022-09-24T03:28:30;16.40;63.10
29031;DHT22;16122;50.236;11.734;2022-09-24T03:30:56;16.40;63.10
29031;DHT22;16122;50.236;11.734;2022-09-24T03:33:46;16.40;63.30
29031;DHT22;16122;50.236;11.734;2022-09-24T03:36:17;16.40;63.50
29031;DHT22;16122;50.236;11.734;2022-09-24T03:38:45;16.40;63.20
29031;DHT22;16122;50.236;11.734;2022-09-24T03:41:13;16.40;63.30
29031;DHT22;16122;50.236;11.734;2022-09-24T03:43:39;16.40;63.40
29031;DHT22;16122;50.236;11.734;2022-09-24T03:46:06;16.40;63.20
29031;DHT22;16122;50.236;11.734;2022-09-24T03:48:36;16.40;63.10
29031;DHT22;16122;50.236;11.734;2022-09-24T03:51:09;16.30;63.00
29031;DHT22;16122;50.236;11.734;2022-09-24T03:53:35;16.30;63.10
29031;DHT22;16122;50.236;11.734;2022-09-24T03:56:02;16.50;63.30
29031;DHT22;16122;50.236;11.734;2022-09-24T03:58:29;16.30;63.00
29031;DHT22;16122;50.236;11.734;2022-09-24T04:00:56;16.30;63.00
29031;DHT22;16122;50.236;11.734;2022-09-24T04:03:23;16.20;62.90
29031;DHT22;16122;50.236;11.734;2022-09-24T04:05:49;16.30;63.10
29031;DHT22;16122;50.236;11.734;2022-09-24T04:08:20;16.30;63.30
29031;DHT22;16122;50.236;11.734;2022-09-24T04:10:47;16.30;63.10
29031;DHT22;16122;50.236;11.734;2022-09-24T04:13:14;16.30;63.20
29031;DHT22;16122;50.236;11.734;2022-09-24T04:15:40;16.30;63.10
29031;DHT22;16122;50.236;11.734;2022-09-24T04:18:07;16.30;63.20
29031;DHT22;16122;50.236;11.734;2022-09-24T04:20:34;16.30;63.60
29031;DHT22;16122;50.236;11.734;2022-09-24T04:23:00;16.30;63.60
29031;DHT22;16122;50.236;11.734;2022-09-24T04:25:28;16.30;63.80
29031;DHT22;16122;50.236;11.734;2022-09-24T04:27:59;16.30;63.90
29031;DHT22;16122;50.236;11.734;2022-09-24T04:30:26;16.30;63.90
29031;DHT22;16122;50.236;11.734;2022-09-24T04:32:52;16.40;64.20
29031;DHT22;16122;50.236;11.734;2022-09-24T04:35:20;16.30;64.30
29031;DHT22;16122;50.236;11.734;2022-09-24T04:37:47;16.30;64.30
29031;DHT22;16122;50.236;11.734;2022-09-24T04:40:13;16.40;64.50
29031;DHT22;16122;50.236;11.734;2022-09-24T04:42:42;16.30;64.80
29031;DHT22;16122;50.236;11.734;2022-09-24T04:45:10;16.30;64.70
29031;DHT22;16122;50.236;11.734;2022-09-24T04:47:37;16.30;64.70
29031;DHT22;16122;50.236;11.734;2022-09-24T04:50:06;16.30;64.60
29031;DHT22;16122;50.236;11.734;2022-09-24T04:52:32;16.30;64.70
29031;DHT22;16122;50.236;11.734;2022-09-24T04:54:59;16.40;64.80
29031;DHT22;16122;50.236;11.734;2022-09-24T04:57:26;16.40;64.90
29031;DHT22;16122;50.236;11.734;2022-09-24T04:59:53;16.40;64.90
29031;DHT22;16122;50.236;11.734;2022-09-24T05:02:19;16.20;64.70
29031;DHT22;16122;50.236;11.734;2022-09-24T05:04:45;16.30;64.90
29031;DHT22;16122;50.236;11.734;2022-09-24T05:07:12;16.40;65.20
29031;DHT22;16122;50.236;11.734;2022-09-24T05:09:37;16.40;65.50
29031;DHT22;16122;50.236;11.734;2022-09-24T05:12:04;16.30;65.10
29031;DHT22;16122;50.236;11.734;2022-09-24T05:14:30;16.40;65.10
29031;DHT22;16122;50.236;11.734;2022-09-24T05:16:56;16.30;65.10
29031;DHT22;16122;50.236;11.734;2022-09-24T05:19:22;16.30;64.90
29031;DHT22;16122;50.236;11.734;2022-09-24T05:21:48;16.40;65.10
29031;DHT22;16122;50.236;11.734;2022-09-24T05:24:13;16.40;64.90
29031;DHT22;16122;50.236;11.734;2022-09-24T05:26:39;16.30;64.90
29031;DHT22;16122;50.236;11.734;2022-09-24T05:29:24;16.40;64.80
29031;DHT22;16122;50.236;11.734;2022-09-24T05:31:50;16.40;65.10
29031;DHT22;16122;50.236;11.734;2022-09-24T05:34:16;16.40;65.10
29031;DHT22;16122;50.236;11.734;2022-09-24T05:36:42;16.40;65.30
29031;DHT22;16122;50.236;11.734;2022-09-24T05:39:09;16.40;65.20
29031;DHT22;16122;50.236;11.734;2022-09-24T05:41:36;16.40;65.10
29031;DHT22;16122;50.236;11.734;2022-09-24T05:44:03;16.40;64.90
29031;DHT22;16122;50.236;11.734;2022-09-24T05:46:29;16.50;65.40
29031;DHT22;16122;50.236;11.734;2022-09-24T05:48:55;16.40;65.10
29031;DHT22;16122;50.236;11.734;2022-09-24T05:51:21;16.40;65.20
29031;DHT22;16122;50.236;11.734;2022-09-24T05:53:47;16.40;65.30
29031;DHT22;16122;50.236;11.734;2022-09-24T05:56:13;16.40;65.40
29031;DHT22;16122;50.236;11.734;2022-09-24T05:58:38;16.40;65.50
29031;DHT22;16122;50.236;11.734;2022-09-24T06:01:04;16.60;65.60
29031;DHT22;16122;50.236;11.734;2022-09-24T06:03:30;16.40;65.40
29031;DHT22;16122;50.236;11.734;2022-09-24T06:05:56;16.40;65.00
29031;DHT22;16122;50.236;11.734;2022-09-24T06:08:27;16.40;64.90
29031;DHT22;16122;50.236;11.734;2022-09-24T06:11:01;16.40;65.40
29031;DHT22;16122;50.236;11.734;2022-09-24T06:13:27;16.40;65.40
29031;DHT22;16122;50.236;11.734;2022-09-24T06:16:05;16.40;65.70
29031;DHT22;16122;50.236;11.734;2022-09-24T06:18:35;16.40;65.60
29031;DHT22;16122;50.236;11.734;2022-09-24T06:21:05;16.40;65.20
29031;DHT22;16122;50.236;11.734;2022-09-24T06:23:33;16.40;65.00
29031;DHT22;16122;50.236;11.734;2022-09-24T06:25:59;16.40;64.80
29031;DHT22;16122;50.236;11.734;2022-09-24T06:28:25;16.40;64.70
29031;DHT22;16122;50.236;11.734;2022-09-24T06:30:51;16.20;64.50
29031;DHT22;16122;50.236;11.734;2022-09-24T06:33:16;16.40;64.50
29031;DHT22;16122;50.236;11.734;2022-09-24T06:35:43;16.30;64.70
29031;DHT22;16122;50.236;11.734;2022-09-24T06:38:16;16.40;64.80
29031;DHT22;16122;50.236;11.734;2022-09-24T06:40:44;16.40;64.70
29031;DHT22;16122;50.236;11.734;2022-09-24T06:43:11;16.50;64.90
29031;DHT22;16122;50.236;11.734;2022-09-24T06:45:38;16.40;64.70
29031;DHT22;16122;50.236;11.734;2022-09-24T06:48:04;16.40;65.10
29031;DHT22;16122;50.236;11.734;2022-09-24T06:50:32;16.50;66.90
29031;DHT22;16122;50.236;11.734;2022-09-24T06:52:59;16.50;66.80
29031;DHT22;16122;50.236;11.734;2022-09-24T06:55:25;16.50;66.70
29031;DHT22;16122;50.236;11.734;2022-09-24T06:58:04;16.50;66.50
29031;DHT22;16122;50.236;11.734;2022-09-24T07:00:30;16.50;66.50
29031;DHT22;16122;50.236;11.734;2022-09-24T07:02:56;16.60;66.40
29031;DHT22;16122;50.236;11.734;2022-09-24T07:05:22;16.50;66.50
29031;DHT22;16122;50.236;11.734;2022-09-24T07:07:47;16.50;66.80
29031;DHT22;16122;50.236;11.734;2022-09-24T07:10:13;16.70;66.90
29031;DHT22;16122;50.236;11.734;2022-09-24T07:12:41;16.50;67.30
29031;DHT22;16122;50.236;11.734;2022-09-24T07:15:08;16.50;67.30
29031;DHT22;16122;50.236;11.734;2022-09-24T07:17:35;16.60;67.50
29031;DHT22;16122;50.236;11.734;2022-09-24T07:20:01;16.60;67.70
29031;DHT22;16122;50.236;11.734;2022-09-24T07:22:27;16.60;68.10
29031;DHT22;16122;50.236;11.734;2022-09-24T07:24:53;16.60;68.40
29031;DHT22;16122;50.236;11.734;2022-09-24T07:27:19;16.70;68.90
29031;DHT22;16122;50.236;11.734;2022-09-24T07:29:46;16.60;70.50
29031;DHT22;16122;50.236;11.734;2022-09-24T07:32:15;16.60;70.40
29031;DHT22;16122;50.236;11.734;2022-09-24T07:34:42;16.60;70.90
29031;DHT22;16122;50.236;11.734;2022-09-24T07:37:08;16.60;71.20
29031;DHT22;16122;50.236;11.734;2022-09-24T07:39:33;16.60;71.10
29031;DHT22;16122;50.236;11.734;2022-09-24T07:41:59;16.60;70.90
29031;DHT22;16122;50.236;11.734;2022-09-24T07:44:26;16.70;70.90
29031;DHT22;16122;50.236;11.734;2022-09-24T07:46:53;16.70;70.90
29031;DHT22;16122;50.236;11.734;2022-09-24T07:49:20;16.70;70.80
29031;DHT22;16122;50.236;11.734;2022-09-24T07:51:46;16.70;70.70
29031;DHT22;16122;50.236;11.734;2022-09-24T07:54:12;16.70;70.40
29031;DHT22;16122;50.236;11.734;2022-09-24T07:56:38;16.70;70.50
29031;DHT22;16122;50.236;11.734;2022-09-24T07:59:05;16.70;70.60
29031;DHT22;16122;50.236;11.734;2022-09-24T08:01:31;16.70;70.00
29031;DHT22;16122;50.236;11.734;2022-09-24T08:03:57;16.70;70.00
29031;DHT22;16122;50.236;11.734;2022-09-24T08:06:24;16.70;70.20
29031;DHT22;16122;50.236;11.734;2022-09-24T08:08:50;16.70;69.90
29031;DHT22;16122;50.236;11.734;2022-09-24T08:11:21;16.70;69.40
29031;DHT22;16122;50.236;11.734;2022-09-24T08:13:47;16.70;69.80
29031;DHT22;16122;50.236;11.734;2022-09-24T08:16:14;16.80;69.80
29031;DHT22;16122;50.236;11.734;2022-09-24T08:18:42;16.80;69.20
29031;DHT22;16122;50.236;11.734;2022-09-24T08:21:09;16.80;69.30
29031;DHT22;16122;50.236;11.734;2022-09-24T08:23:39;16.80;69.10
29031;DHT22;16122;50.236;11.734;2022-09-24T08:26:05;16.80;68.80
29031;DHT22;16122;50.236;11.734;2022-09-24T08:28:31;16.80;68.70
29031;DHT22;16122;50.236;11.734;2022-09-24T08:30:58;16.80;68.80
29031;DHT22;16122;50.236;11.734;2022-09-24T08:33:26;16.80;67.30
29031;DHT22;16122;50.236;11.734;2022-09-24T08:35:51;16.80;67.40
29031;DHT22;16122;50.236;11.734;2022-09-24T08:38:17;16.80;68.10
29031;DHT22;16122;50.236;11.734;2022-09-24T08:40:53;17.10;68.50
29031;DHT22;16122;50.236;11.734;2022-09-24T08:46:11;16.80;67.50
29031;DHT22;16122;50.236;11.734;2022-09-24T08:48:58;16.80;67.30
29031;DHT22;16122;50.236;11.734;2022-09-24T08:51:25;16.90;67.70
29031;DHT22;16122;50.236;11.734;2022-09-24T08:54:06;16.90;67.60
29031;DHT22;16122;50.236;11.734;2022-09-24T08:56:36;16.90;67.60
29031;DHT22;16122;50.236;11.734;2022-09-24T08:59:36;16.90;67.70
29031;DHT22;16122;50.236;11.734;2022-09-24T09:05:14;16.90;67.70
29031;DHT22;16122;50.236;11.734;2022-09-24T09:08:04;16.90;67.80
29031;DHT22;16122;50.236;11.734;2022-09-24T09:10:36;16.90;67.50
29031;DHT22;16122;50.236;11.734;2022-09-24T09:13:16;16.90;67.90
29031;DHT22;16122;50.236;11.734;2022-09-24T09:16:00;17.00;67.80
29031;DHT22;16122;50.236;11.734;2022-09-24T09:18:35;17.00;67.80
29031;DHT22;16122;50.236;11.734;2022-09-24T09:21:17;17.00;67.80
29031;DHT22;16122;50.236;11.734;2022-09-24T09:23:53;17.00;67.90
29031;DHT22;16122;50.236;11.734;2022-09-24T09:26:21;17.00;68.10
29031;DHT22;16122;50.236;11.734;2022-09-24T09:28:47;17.00;68.10
29031;DHT22;16122;50.236;11.734;2022-09-24T09:31:25;17.00;68.20
29031;DHT22;16122;50.236;11.734;2022-09-24T09:42:33;17.00;68.10
29031;DHT22;16122;50.236;11.734;2022-09-24T09:45:14;17.00;68.00
29031;DHT22;16122;50.236;11.734;2022-09-24T09:52:54;17.00;68.10
29031;DHT22;16122;50.236;11.734;2022-09-24T09:55:26;17.10;68.40
29031;DHT22;16122;50.236;11.734;2022-09-24T09:58:08;17.10;68.30
29031;DHT22;16122;50.236;11.734;2022-09-24T10:00:35;17.00;68.20
29031;DHT22;16122;50.236;11.734;2022-09-24T10:03:01;17.10;68.30
29031;DHT22;16122;50.236;11.734;2022-09-24T10:05:29;17.10;68.10
29031;DHT22;16122;50.236;11.734;2022-09-24T10:07:56;17.10;68.10
29031;DHT22;16122;50.236;11.734;2022-09-24T10:10:27;17.10;67.80
29031;DHT22;16122;50.236;11.734;2022-09-24T10:13:19;17.10;67.80
29031;DHT22;16122;50.236;11.734;2022-09-24T10:15:54;17.10;67.70
29031;DHT22;16122;50.236;11.734;2022-09-24T10:21:01;17.20;67.70
29031;DHT22;16122;50.236;11.734;2022-09-24T10:23:42;17.20;67.90
29031;DHT22;16122;50.236;11.734;2022-09-24T10:26:09;17.20;67.90
29031;DHT22;16122;50.236;11.734;2022-09-24T10:28:46;17.20;68.20
29031;DHT22;16122;50.236;11.734;2022-09-24T10:31:35;17.30;68.40
29031;DHT22;16122;50.236;11.734;2022-09-24T10:34:04;17.20;68.20
29031;DHT22;16122;50.236;11.734;2022-09-24T10:36:49;17.10;68.30
29031;DHT22;16122;50.236;11.734;2022-09-24T10:39:16;17.20;68.60
29031;DHT22;16122;50.236;11.734;2022-09-24T10:41:46;17.20;68.50
29031;DHT22;16122;50.236;11.734;2022-09-24T10:44:13;17.20;68.40
29031;DHT22;16122;50.236;11.734;2022-09-24T10:47:11;17.20;68.40
29031;DHT22;16122;50.236;11.734;2022-09-24T10:55:06;17.20;68.70
29031;DHT22;16122;50.236;11.734;2022-09-24T10:58:07;17.20;68.70
29031;DHT22;16122;50.236;11.734;2022-09-24T11:12:00;17.20;68.50
29031;DHT22;16122;50.236;11.734;2022-09-24T11:20:14;17.20;68.40
29031;DHT22;16122;50.236;11.734;2022-09-24T11:31:39;17.20;68.90
29031;DHT22;16122;50.236;11.734;2022-09-24T11:34:17;17.30;69.00
29031;DHT22;16122;50.236;11.734;2022-09-24T11:37:10;17.30;69.30
29031;DHT22;16122;50.236;11.734;2022-09-24T11:42:44;17.20;69.80
29031;DHT22;16122;50.236;11.734;2022-09-24T11:58:49;17.30;67.20
29031;DHT22;16122;50.236;11.734;2022-09-24T12:01:23;17.30;67.10
29031;DHT22;16122;50.236;11.734;2022-09-24T12:04:01;17.30;66.90
29031;DHT22;16122;50.236;11.734;2022-09-24T12:06:36;17.30;67.00
29031;DHT22;16122;50.236;11.734;2022-09-24T12:12:09;17.40;67.20
29031;DHT22;16122;50.236;11.734;2022-09-24T12:14:58;17.50;67.30
29031;DHT22;16122;50.236;11.734;2022-09-24T12:18:05;17.40;67.60
29031;DHT22;16122;50.236;11.734;2022-09-24T12:20:29;17.40;67.90
29031;DHT22;16122;50.236;11.734;2022-09-24T12:23:00;17.40;67.70
29031;DHT22;16122;50.236;11.734;2022-09-24T12:25:30;17.30;68.50
29031;DHT22;16122;50.236;11.734;2022-09-24T12:27:58;17.30;67.70
29031;DHT22;16122;50.236;11.734;2022-09-24T12:33:34;17.30;61.30
29031;DHT22;16122;50.236;11.734;2022-09-24T12:41:23;17.30;64.00
29031;DHT22;16122;50.236;11.734;2022-09-24T12:44:05;17.30;64.10
29031;DHT22;16122;50.236;11.734;2022-09-24T12:49:12;17.30;62.10
29031;DHT22;16122;50.236;11.734;2022-09-24T12:51:41;17.30;63.10
29031;DHT22;16122;50.236;11.734;2022-09-24T12:54:34;17.30;63.50
29031;DHT22;16122;50.236;11.734;2022-09-24T12:57:18;17.30;63.80
29031;DHT22;16122;50.236;11.734;2022-09-24T13:02:18;17.30;63.80
29031;DHT22;16122;50.236;11.734;2022-09-24T13:07:38;17.30;59.70
29031;DHT22;16122;50.236;11.734;2022-09-24T13:10:31;17.30;61.20
29031;DHT22;16122;50.236;11.734;2022-09-24T13:12:58;17.30;61.80
29031;DHT22;16122;50.236;11.734;2022-09-24T13:15:36;17.30;61.80
29031;DHT22;16122;50.236;11.734;2022-09-24T13:18:18;17.30;61.80
29031;DHT22;16122;50.236;11.734;2022-09-24T13:20:57;17.30;62.30
29031;DHT22;16122;50.236;11.734;2022-09-24T13:26:01;17.30;63.80
29031;DHT22;16122;50.236;11.734;2022-09-24T13:36:41;17.40;64.30
29031;DHT22;16122;50.236;11.734;2022-09-24T13:39:42;17.40;64.30
29031;DHT22;16122;50.236;11.734;2022-09-24T13:45:03;17.40;64.50
29031;DHT22;16122;50.236;11.734;2022-09-24T13:47:43;17.30;64.30
29031;DHT22;16122;50.236;11.734;2022-09-24T13:50:18;17.30;64.40
29031;DHT22;16122;50.236;11.734;2022-09-24T13:53:06;17.30;64.40
29031;DHT22;16122;50.236;11.734;2022-09-24T13:55:58;17.30;64.60
29031;DHT22;16122;50.236;11.734;2022-09-24T13:58:34;17.40;64.40
29031;DHT22;16122;50.236;11.734;2022-09-24T14:01:03;17.30;64.50
29031;DHT22;16122;50.236;11.734;2022-09-24T14:03:33;17.40;64.90
29031;DHT22;16122;50.236;11.734;2022-09-24T14:06:01;17.40;65.40
29031;DHT22;16122;50.236;11.734;2022-09-24T14:08:34;17.40;65.90
29031;DHT22;16122;50.236;11.734;2022-09-24T14:11:13;17.50;66.10
29031;DHT22;16122;50.236;11.734;2022-09-24T14:13:39;17.50;66.40
29031;DHT22;16122;50.236;11.734;2022-09-24T14:16:18;17.40;66.80
29031;DHT22;16122;50.236;11.734;2022-09-24T14:18:45;17.40;66.80
29031;DHT22;16122;50.236;11.734;2022-09-24T14:21:27;17.50;67.00
29031;DHT22;16122;50.236;11.734;2022-09-24T14:24:00;17.40;67.30
29031;DHT22;16122;50.236;11.734;2022-09-24T14:29:05;17.40;67.30
29031;DHT22;16122;50.236;11.734;2022-09-24T14:31:40;17.60;67.70
29031;DHT22;16122;50.236;11.734;2022-09-24T14:34:06;17.40;67.50
29031;DHT22;16122;50.236;11.734;2022-09-24T14:36:34;17.40;67.70
29031;DHT22;16122;50.236;11.734;2022-09-24T14:39:02;17.40;67.30
29031;DHT22;16122;50.236;11.734;2022-09-24T14:41:31;17.40;67.70
29031;DHT22;16122;50.236;11.734;2022-09-24T14:44:02;17.50;67.80
29031;DHT22;16122;50.236;11.734;2022-09-24T14:46:34;17.60;67.50
29031;DHT22;16122;50.236;11.734;2022-09-24T14:52:03;17.50;66.90
29031;DHT22;16122;50.236;11.734;2022-09-24T14:54:33;17.50;67.00
29031;DHT22;16122;50.236;11.734;2022-09-24T14:59:37;17.50;66.90
29031;DHT22;16122;50.236;11.734;2022-09-24T15:02:32;17.50;66.80
29031;DHT22;16122;50.236;11.734;2022-09-24T15:05:04;17.50;66.90
29031;DHT22;16122;50.236;11.734;2022-09-24T15:07:32;17.50;66.60
29031;DHT22;16122;50.236;11.734;2022-09-24T15:10:01;17.20;66.60
29031;DHT22;16122;50.236;11.734;2022-09-24T15:12:32;17.50;66.40
29031;DHT22;16122;50.236;11.734;2022-09-24T15:15:01;17.60;66.40
29031;DHT22;16122;50.236;11.734;2022-09-24T15:17:30;17.60;66.50
29031;DHT22;16122;50.236;11.734;2022-09-24T15:19:56;17.60;66.60
29031;DHT22;16122;50.236;11.734;2022-09-24T15:22:26;17.60;66.20
29031;DHT22;16122;50.236;11.734;2022-09-24T15:24:54;17.60;66.30
29031;DHT22;16122;50.236;11.734;2022-09-24T15:27:28;17.60;66.30
29031;DHT22;16122;50.236;11.734;2022-09-24T15:29:56;17.60;66.10
29031;DHT22;16122;50.236;11.734;2022-09-24T15:32:28;17.40;66.20
29031;DHT22;16122;50.236;11.734;2022-09-24T15:35:00;17.60;67.10
29031;DHT22;16122;50.236;11.734;2022-09-24T15:37:28;17.50;67.70
29031;DHT22;16122;50.236;11.734;2022-09-24T15:40:04;17.50;68.10
29031;DHT22;16122;50.236;11.734;2022-09-24T15:42:30;17.50;68.50
29031;DHT22;16122;50.236;11.734;2022-09-24T15:44:56;17.50;68.10
29031;DHT22;16122;50.236;11.734;2022-09-24T15:47:22;17.50;68.40
29031;DHT22;16122;50.236;11.734;2022-09-24T15:49:48;17.50;68.20
29031;DHT22;16122;50.236;11.734;2022-09-24T15:52:19;17.50;68.20
29031;DHT22;16122;50.236;11.734;2022-09-24T15:54:53;17.40;68.20
29031;DHT22;16122;50.236;11.734;2022-09-24T15:57:20;17.40;68.40
29031;DHT22;16122;50.236;11.734;2022-09-24T15:59:48;17.40;68.20
29031;DHT22;16122;50.236;11.734;2022-09-24T16:02:22;17.50;68.30
29031;DHT22;16122;50.236;11.734;2022-09-24T16:04:49;17.40;68.20
29031;DHT22;16122;50.236;11.734;2022-09-24T16:07:15;17.40;68.20
29031;DHT22;16122;50.236;11.734;2022-09-24T16:09:43;17.40;68.10
29031;DHT22;16122;50.236;11.734;2022-09-24T16:12:15;17.50;68.30
29031;DHT22;16122;50.236;11.734;2022-09-24T16:14:42;17.50;68.70
29031;DHT22;16122;50.236;11.734;2022-09-24T16:17:08;17.40;68.60
29031;DHT22;16122;50.236;11.734;2022-09-24T16:19:34;17.40;68.70
29031;DHT22;16122;50.236;11.734;2022-09-24T16:22:00;17.40;68.60
29031;DHT22;16122;50.236;11.734;2022-09-24T16:24:26;17.40;68.70
29031;DHT22;16122;50.236;11.734;2022-09-24T16:26:52;17.40;68.80
29031;DHT22;16122;50.236;11.734;2022-09-24T16:29:18;17.50;68.90
29031;DHT22;16122;50.236;11.734;2022-09-24T16:31:44;17.40;68.70
29031;DHT22;16122;50.236;11.734;2022-09-24T16:34:11;17.40;68.50
29031;DHT22;16122;50.236;11.734;2022-09-24T16:36:37;17.40;68.50
29031;DHT22;16122;50.236;11.734;2022-09-24T16:39:03;17.40;68.70
29031;DHT22;16122;50.236;11.734;2022-09-24T16:41:29;17.50;68.80
29031;DHT22;16122;50.236;11.734;2022-09-24T16:44:02;17.50;69.30
29031;DHT22;16122;50.236;11.734;2022-09-24T16:46:28;17.50;68.60
29031;DHT22;16122;50.236;11.734;2022-09-24T16:48:55;17.50;68.40
29031;DHT22;16122;50.236;11.734;2022-09-24T16:51:21;17.60;68.30
29031;DHT22;16122;50.236;11.734;2022-09-24T16:53:47;17.50;68.10
29031;DHT22;16122;50.236;11.734;2022-09-24T16:56:14;17.60;68.20
29031;DHT22;16122;50.236;11.734;2022-09-24T16:58:41;17.50;68.00
29031;DHT22;16122;50.236;11.734;2022-09-24T17:01:10;17.60;68.30
29031;DHT22;16122;50.236;11.734;2022-09-24T17:03:37;17.60;68.10
29031;DHT22;16122;50.236;11.734;2022-09-24T17:06:04;17.60;68.10
29031;DHT22;16122;50.236;11.734;2022-09-24T17:08:31;17.60;68.40
29031;DHT22;16122;50.236;11.734;2022-09-24T17:11:16;17.60;68.40
29031;DHT22;16122;50.236;11.734;2022-09-24T17:13:42;17.60;68.50
29031;DHT22;16122;50.236;11.734;2022-09-24T17:16:09;17.60;68.10
29031;DHT22;16122;50.236;11.734;2022-09-24T17:18:35;17.60;68.30
29031;DHT22;16122;50.236;11.734;2022-09-24T17:21:07;17.60;68.20
29031;DHT22;16122;50.236;11.734;2022-09-24T17:23:33;17.50;68.30
29031;DHT22;16122;50.236;11.734;2022-09-24T17:26:08;17.60;69.20
29031;DHT22;16122;50.236;11.734;2022-09-24T17:28:35;17.60;68.40
29031;DHT22;16122;50.236;11.734;2022-09-24T17:31:02;17.60;68.30
29031;DHT22;16122;50.236;11.734;2022-09-24T17:33:29;17.60;68.40
29031;DHT22;16122;50.236;11.734;2022-09-24T17:35:59;17.50;68.20
29031;DHT22;16122;50.236;11.734;2022-09-24T17:38:26;17.60;68.20
29031;DHT22;16122;50.236;11.734;2022-09-24T17:41:13;17.60;68.20
29031;DHT22;16122;50.236;11.734;2022-09-24T17:43:40;17.60;68.30
29031;DHT22;16122;50.236;11.734;2022-09-24T17:46:12;17.60;68.20
29031;DHT22;16122;50.236;11.734;2022-09-24T17:48:40;17.50;67.90
29031;DHT22;16122;50.236;11.734;2022-09-24T17:51:09;17.60;68.10